Time;durP1;ratioP1;P1;durP2;ratioP2;P2;SDS_P1;SDS_P2;PMS_P1;PMS_P2;Temp;Humidity;BMP_temperature;BMP_pressure;BME280_temperature;BME280_humidity;BME280_pressure;Samples;Min_cycle;Max_cycle;Signal;HPM_P1;HPM_P2
2022/03/21 00:00:44;;;;;;;26.80;10.93;;;6.00;62.70;;;;;;5009458;28;20053;-70
2022/03/21 00:03:14;;;;;;;27.02;11.02;;;6.10;62.60;;;;;;5010865;28;20058;-71
2022/03/21 00:05:40;;;;;;;27.63;10.23;;;6.20;62.80;;;;;;5012086;28;20026;-69
2022/03/21 00:08:06;;;;;;;23.67;10.00;;;6.20;62.10;;;;;;5011882;28;20029;-68
2022/03/21 00:10:33;;;;;;;23.48;10.20;;;6.20;61.80;;;;;;5012075;28;20048;-71
2022/03/21 00:13:00;;;;;;;22.80;9.88;;;6.20;62.10;;;;;;5012177;28;20387;-70
2022/03/21 00:15:27;;;;;;;23.50;10.20;;;6.10;62.70;;;;;;5011576;28;20026;-72
2022/03/21 00:17:52;;;;;;;23.30;9.90;;;6.00;64.50;;;;;;5012326;28;20526;-71
2022/03/21 00:20:19;;;;;;;21.55;9.65;;;5.80;65.60;;;;;;5010919;28;20054;-72
2022/03/21 00:22:45;;;;;;;23.52;10.18;;;5.70;67.20;;;;;;5011992;28;20107;-71
2022/03/21 00:25:11;;;;;;;27.55;10.20;;;5.70;66.20;;;;;;5011425;28;20030;-71
2022/03/21 00:27:38;;;;;;;24.35;9.93;;;5.60;66.60;;;;;;5011426;28;20026;-71
2022/03/21 00:30:05;;;;;;;26.45;10.15;;;5.50;68.00;;;;;;5011458;28;20037;-71
2022/03/21 00:32:31;;;;;;;24.00;10.43;;;5.50;68.70;;;;;;5011232;28;20040;-70
2022/03/21 00:34:57;;;;;;;24.10;10.55;;;5.50;67.70;;;;;;5011820;28;20038;-70
2022/03/21 00:37:23;;;;;;;22.60;9.40;;;5.50;68.40;;;;;;5010790;28;20796;-71
2022/03/21 00:39:52;;;;;;;27.15;10.63;;;5.50;67.80;;;;;;5009684;28;20132;-71
2022/03/21 00:42:18;;;;;;;24.05;10.85;;;5.50;68.10;;;;;;5010490;28;20364;-71
2022/03/21 00:44:44;;;;;;;25.92;9.95;;;5.40;68.40;;;;;;5011334;28;20041;-71
2022/03/21 00:47:10;;;;;;;22.02;9.77;;;5.40;68.30;;;;;;5010901;28;20080;-69
2022/03/21 00:49:36;;;;;;;24.23;10.57;;;5.40;69.20;;;;;;5011443;28;20041;-71
2022/03/21 00:52:02;;;;;;;24.13;10.60;;;5.20;70.50;;;;;;5010210;28;20030;-71
2022/03/21 00:54:28;;;;;;;25.15;10.57;;;5.10;71.80;;;;;;5010641;28;20045;-71
2022/03/21 00:56:53;;;;;;;23.77;10.30;;;5.00;72.90;;;;;;5011257;28;20087;-71
2022/03/21 00:59:19;;;;;;;23.90;10.38;;;4.90;73.20;;;;;;5009191;28;20105;-71
2022/03/21 01:01:45;;;;;;;24.35;9.63;;;4.90;74.30;;;;;;5010099;28;20050;-71
2022/03/21 01:04:11;;;;;;;25.40;10.48;;;4.90;73.10;;;;;;5009970;28;20054;-68
2022/03/21 01:06:38;;;;;;;26.40;10.88;;;5.00;71.70;;;;;;5010500;28;20718;-71
2022/03/21 01:09:04;;;;;;;26.40;9.88;;;5.00;71.90;;;;;;5011089;28;20112;-71
2022/03/21 01:11:30;;;;;;;25.02;10.52;;;5.00;72.50;;;;;;5010001;28;20030;-71
2022/03/21 01:13:56;;;;;;;25.30;10.27;;;5.00;73.20;;;;;;5009633;28;20044;-71
2022/03/21 01:16:21;;;;;;;25.27;10.68;;;5.00;72.60;;;;;;5010248;28;20092;-71
2022/03/21 01:18:47;;;;;;;25.70;9.70;;;5.00;72.20;;;;;;5010785;28;20022;-72
2022/03/21 01:21:13;;;;;;;24.17;10.48;;;5.00;71.70;;;;;;5009861;28;20038;-69
2022/03/21 01:23:39;;;;;;;25.95;10.32;;;5.00;72.00;;;;;;5010875;28;20046;-71
2022/03/21 01:26:05;;;;;;;25.02;10.30;;;5.00;72.00;;;;;;5010626;28;20042;-71
2022/03/21 01:28:30;;;;;;;20.58;9.57;;;5.00;71.70;;;;;;5009750;28;20032;-71
2022/03/21 01:30:56;;;;;;;23.65;10.65;;;5.00;70.30;;;;;;5010641;28;20085;-72
2022/03/21 01:33:22;;;;;;;27.15;10.38;;;5.10;70.10;;;;;;5009201;28;20045;-71
2022/03/21 01:35:47;;;;;;;26.10;9.85;;;5.20;69.20;;;;;;5010671;28;20127;-72
2022/03/21 01:38:14;;;;;;;27.80;10.13;;;5.20;68.90;;;;;;5009558;28;20057;-70
2022/03/21 01:40:39;;;;;;;25.10;10.05;;;5.20;68.90;;;;;;5010208;28;20409;-72
2022/03/21 01:43:12;;;;;;;24.35;10.48;;;5.20;68.40;;;;;;5010183;28;20083;-71
2022/03/21 01:45:39;;;;;;;26.90;9.82;;;5.20;68.80;;;;;;5009920;28;20022;-70
2022/03/21 01:48:05;;;;;;;24.35;10.68;;;5.20;69.60;;;;;;5010170;28;20030;-72
2022/03/21 01:50:31;;;;;;;24.45;10.30;;;5.20;69.60;;;;;;5009752;28;20625;-71
2022/03/21 01:55:49;;;;;;;27.65;10.93;;;5.10;70.40;;;;;;5008827;28;20042;-72
2022/03/21 01:58:15;;;;;;;25.80;10.38;;;5.00;71.00;;;;;;5009085;28;20057;-71
2022/03/21 02:00:42;;;;;;;23.65;9.57;;;4.80;72.70;;;;;;5009877;28;20384;-71
2022/03/21 02:03:07;;;;;;;23.42;9.57;;;4.70;74.40;;;;;;5008539;28;20373;-71
2022/03/21 02:05:37;;;;;;;22.88;10.20;;;4.60;75.30;;;;;;5007443;28;20087;-71
2022/03/21 02:08:03;;;;;;;26.10;10.13;;;4.60;74.20;;;;;;5009782;28;20033;-72
2022/03/21 02:10:29;;;;;;;21.33;9.77;;;4.70;73.20;;;;;;5009553;28;20030;-71
2022/03/21 02:12:54;;;;;;;25.02;10.68;;;4.70;73.30;;;;;;5009751;28;20396;-72
2022/03/21 02:15:20;;;;;;;21.20;9.38;;;4.70;75.00;;;;;;5009165;28;20082;-72
2022/03/21 02:17:47;;;;;;;26.52;10.52;;;4.60;77.60;;;;;;5009973;28;20037;-70
2022/03/21 02:20:18;;;;;;;24.90;10.45;;;4.30;80.70;;;;;;5008981;28;20037;-69
2022/03/21 02:23:07;;;;;;;25.70;10.07;;;4.10;83.80;;;;;;5009428;28;20391;-71
2022/03/21 02:25:39;;;;;;;26.35;10.52;;;4.10;83.90;;;;;;5008527;28;20038;-71
2022/03/21 02:28:10;;;;;;;27.05;10.70;;;4.00;83.70;;;;;;5009571;28;20783;-71
2022/03/21 02:30:40;;;;;;;25.15;10.20;;;4.10;84.30;;;;;;5008907;28;20876;-71
2022/03/21 02:33:06;;;;;;;;;;;4.00;85.60;;;;;;5006510;28;20104;-71
2022/03/21 02:35:33;;;;;;;23.05;10.18;;;3.90;88.40;;;;;;5008589;28;20004;-71
2022/03/21 02:38:01;;;;;;;28.55;11.02;;;3.90;88.90;;;;;;5009705;28;20042;-71
2022/03/21 02:40:27;;;;;;;24.23;10.52;;;3.80;90.10;;;;;;5007157;28;20044;-71
2022/03/21 02:42:53;;;;;;;23.30;9.88;;;3.80;89.40;;;;;;5009118;28;20030;-71
2022/03/21 02:45:19;;;;;;;26.55;10.07;;;3.90;88.20;;;;;;5009045;28;20026;-71
2022/03/21 02:47:45;;;;;;;26.40;10.05;;;3.90;87.20;;;;;;5009248;28;20037;-72
2022/03/21 02:50:18;;;;;;;29.60;10.77;;;3.90;87.50;;;;;;5009467;28;20037;-71
2022/03/21 02:52:47;;;;;;;23.65;9.95;;;3.90;87.80;;;;;;5009295;28;20030;-71
2022/03/21 02:55:13;;;;;;;26.92;10.00;;;3.90;89.20;;;;;;5009056;28;20465;-72
2022/03/21 02:57:38;;;;;;;26.15;10.50;;;3.80;89.70;;;;;;5008220;28;20033;-71
2022/03/21 03:00:05;;;;;;;24.15;9.70;;;3.80;90.00;;;;;;5009288;28;20046;-71
2022/03/21 03:02:31;;;;;;;24.67;10.52;;;3.80;90.40;;;;;;5007943;28;20030;-71
2022/03/21 03:04:56;;;;;;;26.67;10.10;;;3.80;90.70;;;;;;5008741;28;20121;-72
2022/03/21 03:07:22;;;;;;;24.90;9.70;;;3.80;90.60;;;;;;5008082;28;20030;-72
2022/03/21 03:09:48;;;;;;;23.35;10.07;;;3.80;91.00;;;;;;5008200;28;20447;-71
2022/03/21 03:12:13;;;;;;;24.70;10.05;;;3.80;90.80;;;;;;5008984;28;20494;-71
2022/03/21 03:14:39;;;;;;;22.95;10.05;;;3.70;91.20;;;;;;5008606;28;20063;-71
2022/03/21 03:17:06;;;;;;;23.67;9.63;;;3.80;90.30;;;;;;5009326;28;20477;-72
2022/03/21 03:19:32;;;;;;;23.63;10.15;;;3.80;89.60;;;;;;5007411;28;20081;-71
2022/03/21 03:21:57;;;;;;;22.10;9.65;;;3.80;89.60;;;;;;5023880;28;20484;-71
2022/03/21 03:24:26;;;;;;;26.50;9.90;;;3.80;89.20;;;;;;5008861;28;20038;-71
2022/03/21 03:26:52;;;;;;;24.63;10.23;;;3.90;89.00;;;;;;5007851;28;20037;-72
2022/03/21 03:29:18;;;;;;;29.58;10.65;;;3.90;89.40;;;;;;5017748;28;20033;-69
2022/03/21 03:31:44;;;;;;;29.63;10.57;;;3.80;89.20;;;;;;5015229;28;20397;-72
2022/03/21 03:34:10;;;;;;;26.48;10.10;;;3.80;90.20;;;;;;5008269;28;20038;-72
2022/03/21 03:36:36;;;;;;;26.05;10.05;;;3.80;90.10;;;;;;5019887;28;20040;-71
2022/03/21 03:39:02;;;;;;;26.88;10.40;;;3.80;89.50;;;;;;5023280;28;20109;-72
2022/03/21 03:41:28;;;;;;;22.98;9.95;;;3.80;89.40;;;;;;5011791;28;20392;-72
2022/03/21 03:43:54;;;;;;;26.60;10.35;;;3.80;88.40;;;;;;5013512;28;20138;-71
2022/03/21 03:46:20;;;;;;;27.95;11.20;;;3.90;91.20;;;;;;5012629;28;20034;-69
2022/03/21 03:48:46;;;;;;;25.10;9.63;;;3.50;98.90;;;;;;5019691;28;20030;-71
2022/03/21 03:51:13;;;;;;;34.38;11.77;;;3.20;97.60;;;;;;5012523;28;20034;-72
2022/03/21 03:53:40;;;;;;;24.75;10.57;;;3.20;99.90;;;;;;5011548;28;20030;-71
2022/03/21 03:56:06;;;;;;;26.92;11.05;;;2.90;99.90;;;;;;5012578;28;20112;-71
2022/03/21 03:58:34;;;;;;;25.30;10.38;;;2.70;99.90;;;;;;5011675;28;20030;-68
2022/03/21 04:00:59;;;;;;;26.10;10.00;;;2.60;99.90;;;;;;5011992;28;20041;-72
2022/03/21 04:06:09;;;;;;;27.13;11.35;;;2.50;99.90;;;;;;5011899;28;20065;-71
2022/03/21 04:08:35;;;;;;;31.05;11.50;;;2.40;99.90;;;;;;5011548;28;20034;-71
2022/03/21 04:11:01;;;;;;;24.58;10.43;;;2.30;99.90;;;;;;5012496;28;20435;-71
2022/03/21 04:13:26;;;;;;;25.92;10.10;;;2.30;99.90;;;;;;5011706;28;20467;-71
2022/03/21 04:15:52;;;;;;;26.38;10.55;;;2.40;99.90;;;;;;5011726;28;20473;-72
2022/03/21 04:18:19;;;;;;;25.83;11.02;;;2.30;99.90;;;;;;5012147;28;20105;-71
2022/03/21 04:20:45;;;;;;;27.65;10.60;;;2.30;99.90;;;;;;5026748;28;20034;-71
2022/03/21 04:23:11;;;;;;;22.88;9.80;;;2.30;99.90;;;;;;5011538;28;20033;-71
2022/03/21 04:25:37;;;;;;;24.75;10.02;;;2.30;99.90;;;;;;5011429;28;20026;-71
2022/03/21 04:28:08;;;;;;;27.95;12.13;;;2.50;99.90;;;;;;5012102;28;20582;-71
2022/03/21 04:30:34;;;;;;;27.80;11.55;;;2.60;99.90;;;;;;5011380;28;20478;-71
2022/03/21 04:33:00;;;;;;;30.80;12.40;;;2.60;99.90;;;;;;5011089;28;20034;-71
2022/03/21 04:35:26;;;;;;;25.45;10.95;;;2.30;99.90;;;;;;5011059;28;20033;-71
2022/03/21 04:37:52;;;;;;;28.35;9.90;;;2.20;99.90;;;;;;5011876;28;20113;-71
2022/03/21 04:40:18;;;;;;;24.45;10.45;;;2.10;99.90;;;;;;5011812;28;20133;-71
2022/03/21 04:42:43;;;;;;;27.88;10.15;;;2.10;99.90;;;;;;5011025;28;20493;-72
2022/03/21 04:45:09;;;;;;;24.80;10.35;;;2.20;99.90;;;;;;5011405;28;20029;-71
2022/03/21 04:47:35;;;;;;;23.33;9.77;;;2.40;99.90;;;;;;5010439;28;20037;-71
2022/03/21 04:50:01;;;;;;;23.88;10.20;;;2.40;99.90;;;;;;5010373;28;20080;-71
2022/03/21 04:52:27;;;;;;;23.17;9.32;;;2.50;99.90;;;;;;5010695;28;20030;-71
2022/03/21 04:54:53;;;;;;;27.42;11.07;;;2.50;99.90;;;;;;5011629;28;20045;-71
2022/03/21 04:57:23;;;;;;;26.33;10.20;;;2.50;99.90;;;;;;5011499;28;20037;-71
2022/03/21 04:59:49;;;;;;;30.13;10.85;;;2.50;99.90;;;;;;5011250;28;20802;-71
2022/03/21 05:02:15;;;;;;;29.35;10.90;;;2.50;99.90;;;;;;5010915;28;20120;-71
2022/03/21 05:04:41;;;;;;;39.20;13.13;;;2.50;99.90;;;;;;5010352;28;20065;-72
2022/03/21 05:07:11;;;;;;;31.23;12.35;;;2.50;99.90;;;;;;5010651;28;20022;-72
2022/03/21 05:09:40;;;;;;;26.60;11.65;;;2.40;99.90;;;;;;5010979;28;20032;-72
2022/03/21 05:12:08;;;;;;;28.75;12.05;;;2.40;99.90;;;;;;5009920;28;20380;-71
2022/03/21 05:14:33;;;;;;;29.95;11.63;;;2.50;99.90;;;;;;5010377;28;20084;-70
2022/03/21 05:17:01;;;;;;;28.52;11.27;;;2.50;99.90;;;;;;5010572;28;20562;-71
2022/03/21 05:19:28;;;;;;;30.23;11.13;;;2.50;99.90;;;;;;5010396;28;20357;-71
2022/03/21 05:21:53;;;;;;;26.17;10.50;;;2.50;99.90;;;;;;5009722;28;20038;-71
2022/03/21 05:32:32;;;;;;;27.33;10.88;;;1.70;99.90;;;;;;5010247;28;20104;-71
2022/03/21 05:37:42;;;;;;;27.02;11.15;;;1.50;99.90;;;;;;5009344;28;20037;-71
2022/03/21 05:42:52;;;;;;;26.63;11.55;;;1.50;99.90;;;;;;5000246;28;20344;-70
2022/03/21 05:45:20;;;;;;;29.85;12.27;;;1.40;99.90;;;;;;5013588;28;20030;-73
2022/03/21 05:50:34;;;;;;;29.77;10.90;;;1.10;99.90;;;;;;5009214;28;20048;-72
2022/03/21 05:53:00;;;;;;;25.23;10.63;;;1.20;99.90;;;;;;5012475;28;20033;-72
2022/03/21 05:55:26;;;;;;;33.78;12.73;;;1.20;99.90;;;;;;5009603;28;20463;-68
2022/03/21 05:57:51;;;;;;;28.75;11.30;;;1.00;99.90;;;;;;5009231;28;20021;-72
2022/03/21 06:00:20;;;;;;;25.45;11.10;;;1.10;99.90;;;;;;5010552;28;20125;-73
2022/03/21 06:02:45;;;;;;;33.35;13.02;;;1.20;99.90;;;;;;5009138;28;20030;-72
2022/03/21 06:05:12;;;;;;;31.05;12.65;;;1.10;99.90;;;;;;5010034;28;20116;-74
2022/03/21 06:07:38;;;;;;;31.65;13.35;;;1.00;99.90;;;;;;5006253;28;20030;-72
2022/03/21 06:10:04;;;;;;;36.40;14.27;;;1.00;99.90;;;;;;5010118;28;20026;-71
2022/03/21 06:12:32;;;;;;;44.60;16.38;;;1.00;99.90;;;;;;5009448;28;20024;-71
2022/03/21 06:14:59;;;;;;;37.13;14.40;;;1.00;99.90;;;;;;5008219;28;20034;-71
2022/03/21 06:17:25;;;;;;;31.50;12.13;;;1.10;99.90;;;;;;5010111;28;20040;-72
2022/03/21 06:19:51;;;;;;;28.40;10.68;;;1.30;99.90;;;;;;5009954;28;20072;-71
2022/03/21 06:22:17;;;;;;;26.45;11.18;;;1.60;99.90;;;;;;5010071;28;20030;-72
2022/03/21 06:24:42;;;;;;;27.80;11.25;;;1.90;99.90;;;;;;5008492;28;20099;-72
2022/03/21 06:27:08;;;;;;;32.72;12.55;;;2.10;99.90;;;;;;5010280;28;20057;-73
2022/03/21 06:29:34;;;;;;;29.80;12.75;;;2.20;99.90;;;;;;5008949;28;20109;-72
2022/03/21 06:32:00;;;;;;;30.63;12.13;;;2.20;99.90;;;;;;5007875;28;20034;-71
2022/03/21 06:34:25;;;;;;;33.30;12.73;;;2.20;99.90;;;;;;5009177;28;20033;-72
2022/03/21 06:36:52;;;;;;;35.38;14.35;;;2.00;99.90;;;;;;5007826;28;20425;-73
2022/03/21 06:39:19;;;;;;;34.08;13.23;;;1.90;99.90;;;;;;5009857;28;20076;-72
2022/03/21 06:41:45;;;;;;;30.80;13.10;;;2.00;99.90;;;;;;5008557;28;20042;-72
2022/03/21 06:44:11;;;;;;;32.22;13.57;;;2.20;99.90;;;;;;5008471;28;20072;-73
2022/03/21 06:46:37;;;;;;;32.88;12.30;;;2.20;99.90;;;;;;5008468;28;20026;-73
2022/03/21 06:49:03;;;;;;;35.08;13.75;;;2.40;99.90;;;;;;5008992;28;20041;-72
2022/03/21 06:51:29;;;;;;;35.65;13.48;;;2.50;99.90;;;;;;5008915;28;20782;-68
2022/03/21 06:53:54;;;;;;;31.42;12.68;;;2.60;99.90;;;;;;5009025;28;20025;-72
2022/03/21 06:56:20;;;;;;;29.88;12.30;;;2.80;99.90;;;;;;5009050;28;20481;-72
2022/03/21 06:58:46;;;;;;;25.48;11.27;;;3.00;99.90;;;;;;5008841;28;20034;-72
2022/03/21 07:01:11;;;;;;;28.27;11.70;;;3.20;99.90;;;;;;5006786;28;20038;-72
2022/03/21 07:03:37;;;;;;;29.67;11.73;;;3.40;99.90;;;;;;5008285;28;20439;-72
2022/03/21 07:06:03;;;;;;;31.10;12.10;;;3.60;99.90;;;;;;5009245;28;20036;-73
2022/03/21 07:08:29;;;;;;;30.30;11.93;;;3.80;99.90;;;;;;5010040;28;20042;-69
2022/03/21 07:10:55;;;;;;;28.65;11.13;;;3.90;99.90;;;;;;5013467;28;20045;-72
2022/03/21 07:13:22;;;;;;;29.30;13.15;;;4.00;99.90;;;;;;5013432;28;20034;-72
2022/03/21 07:15:47;;;;;;;28.48;12.00;;;4.20;99.90;;;;;;5012414;28;20452;-72
2022/03/21 07:18:13;;;;;;;30.90;12.15;;;4.20;99.90;;;;;;5012906;28;20068;-73
2022/03/21 07:20:43;;;;;;;30.60;13.48;;;4.40;99.90;;;;;;5012234;28;20564;-72
2022/03/21 07:23:08;;;;;;;30.45;12.85;;;4.50;99.90;;;;;;5013092;28;20026;-72
2022/03/21 07:25:34;;;;;;;30.50;12.52;;;4.60;99.90;;;;;;5012536;28;20091;-73
2022/03/21 07:28:00;;;;;;;33.75;14.05;;;4.80;99.90;;;;;;5012994;28;20106;-71
2022/03/21 07:30:26;;;;;;;31.40;13.27;;;4.90;99.90;;;;;;5012927;28;20060;-72
2022/03/21 07:32:52;;;;;;;33.95;13.85;;;5.00;99.90;;;;;;5011993;28;20026;-73
2022/03/21 07:35:18;;;;;;;27.20;12.45;;;5.10;99.90;;;;;;5012269;28;20041;-73
2022/03/21 07:37:50;;;;;;;27.67;12.43;;;5.20;99.90;;;;;;5012278;28;20030;-72
2022/03/21 07:40:17;;;;;;;29.38;12.48;;;5.10;99.90;;;;;;5012886;28;20058;-72
2022/03/21 07:42:44;;;;;;;36.17;12.68;;;5.20;99.90;;;;;;5012423;28;20113;-73
2022/03/21 07:47:55;;;;;;;27.00;12.07;;;5.30;99.90;;;;;;5011941;28;20121;-71
2022/03/21 07:50:23;;;;;;;28.35;12.65;;;5.40;99.90;;;;;;5012218;28;20064;-72
2022/03/21 07:52:50;;;;;;;31.17;12.60;;;5.50;99.90;;;;;;5011695;28;20523;-71
2022/03/21 07:55:16;;;;;;;30.00;12.30;;;5.60;99.90;;;;;;5012725;28;20061;-71
2022/03/21 07:57:42;;;;;;;26.52;12.38;;;5.70;99.90;;;;;;5011807;28;20060;-72
2022/03/21 08:00:11;;;;;;;29.48;12.70;;;5.90;99.90;;;;;;5012132;28;20713;-72
2022/03/21 08:02:42;;;;;;;29.50;12.00;;;6.10;99.90;;;;;;5011370;28;20116;-72
2022/03/21 08:05:08;;;;;;;30.73;12.38;;;6.30;99.90;;;;;;5012236;28;20037;-71
2022/03/21 08:07:35;;;;;;;28.58;12.32;;;6.60;99.90;;;;;;5011839;28;20801;-68
2022/03/21 08:10:05;;;;;;;27.17;11.13;;;6.80;97.40;;;;;;5012108;28;20125;-72
2022/03/21 08:12:30;;;;;;;25.52;12.23;;;6.90;92.90;;;;;;5012378;28;20049;-72
2022/03/21 08:14:56;;;;;;;30.63;12.25;;;7.10;96.40;;;;;;5011567;28;20391;-72
2022/03/21 08:17:23;;;;;;;30.33;12.95;;;7.10;95.60;;;;;;5012229;28;20033;-72
2022/03/21 08:19:49;;;;;;;28.08;12.40;;;7.10;95.80;;;;;;5010873;28;20475;-71
2022/03/21 08:22:15;;;;;;;26.60;11.55;;;7.10;96.20;;;;;;5011531;28;20068;-72
2022/03/21 08:24:41;;;;;;;24.52;11.90;;;7.20;96.00;;;;;;5011403;28;20022;-72
2022/03/21 08:27:07;;;;;;;26.25;12.30;;;7.30;95.10;;;;;;5010909;28;20022;-72
2022/03/21 08:29:33;;;;;;;33.00;12.38;;;7.30;93.80;;;;;;5012053;28;20475;-69
2022/03/21 08:31:58;;;;;;;25.63;12.35;;;7.30;95.00;;;;;;5011346;28;20237;-71
2022/03/21 08:34:24;;;;;;;30.73;12.27;;;7.50;93.70;;;;;;5011988;28;20121;-71
2022/03/21 08:36:50;;;;;;;30.15;12.85;;;7.50;91.40;;;;;;5011189;28;20026;-70
2022/03/21 08:39:16;;;;;;;25.75;11.68;;;7.50;92.50;;;;;;5011927;28;20030;-72
2022/03/21 08:41:42;;;;;;;31.33;11.65;;;7.70;92.70;;;;;;5010742;28;20137;-71
2022/03/21 08:44:08;;;;;;;33.42;12.63;;;7.90;91.30;;;;;;5011820;28;20026;-71
2022/03/21 08:46:34;;;;;;;28.67;12.30;;;8.10;92.00;;;;;;5011465;28;20025;-68
2022/03/21 08:51:46;;;;;;;29.33;12.45;;;8.30;87.20;;;;;;5010713;28;20045;-71
2022/03/21 08:54:12;;;;;;;28.27;12.43;;;8.50;86.80;;;;;;5011599;28;20026;-72
2022/03/21 08:56:38;;;;;;;28.38;12.30;;;8.60;84.90;;;;;;5010466;28;20362;-67
2022/03/21 08:59:03;;;;;;;26.25;13.05;;;8.80;83.70;;;;;;5010989;28;20136;-71
2022/03/21 09:01:29;;;;;;;30.45;12.13;;;8.80;84.70;;;;;;5010604;28;20120;-71
2022/03/21 09:03:55;;;;;;;32.03;12.50;;;8.90;83.40;;;;;;5010486;28;20054;-71
2022/03/21 09:06:21;;;;;;;28.13;12.25;;;9.10;80.50;;;;;;5010178;28;20065;-70
2022/03/21 09:08:48;;;;;;;26.80;12.20;;;9.10;79.50;;;;;;5010341;28;20483;-70
2022/03/21 09:11:14;;;;;;;25.67;11.60;;;9.20;80.30;;;;;;5011073;28;20052;-71
2022/03/21 09:13:40;;;;;;;32.53;12.57;;;9.10;76.60;;;;;;5010556;28;20053;-68
2022/03/21 09:16:06;;;;;;;31.02;12.68;;;9.10;75.20;;;;;;5011263;28;20483;-72
2022/03/21 09:18:32;;;;;;;25.95;12.18;;;9.10;75.00;;;;;;5010954;28;20481;-71
2022/03/21 09:20:57;;;;;;;27.60;12.60;;;9.20;74.00;;;;;;5010216;28;20256;-72
2022/03/21 09:23:23;;;;;;;26.38;12.07;;;9.10;73.00;;;;;;5011158;28;20036;-71
2022/03/21 09:25:49;;;;;;;26.35;12.13;;;9.20;73.10;;;;;;5010028;28;20708;-70
2022/03/21 09:28:15;;;;;;;27.60;12.25;;;9.30;72.90;;;;;;5010546;28;20379;-72
2022/03/21 09:30:41;;;;;;;26.27;12.50;;;9.40;71.90;;;;;;5010325;28;20112;-67
2022/03/21 09:33:07;;;;;;;29.48;12.63;;;9.40;70.10;;;;;;5009447;28;20122;-71
2022/03/21 09:35:34;;;;;;;29.33;12.05;;;9.50;69.30;;;;;;5010977;28;20105;-72
2022/03/21 09:38:00;;;;;;;29.33;12.48;;;9.50;69.10;;;;;;5009767;28;20030;-70
2022/03/21 09:40:29;;;;;;;27.35;11.85;;;9.60;69.90;;;;;;5010654;28;20048;-71
2022/03/21 09:42:55;;;;;;;24.15;12.13;;;9.60;66.80;;;;;;5010063;28;20092;-70
2022/03/21 09:45:21;;;;;;;28.08;12.07;;;9.80;66.80;;;;;;5010332;28;20480;-71
2022/03/21 09:50:34;;;;;;;27.52;12.40;;;9.90;66.40;;;;;;5010478;28;20036;-71
2022/03/21 09:53:00;;;;;;;28.65;13.85;;;10.00;64.30;;;;;;5008933;28;20033;-71
2022/03/21 09:55:26;;;;;;;27.90;12.40;;;10.20;65.20;;;;;;5011657;28;20034;-71
2022/03/21 09:57:52;;;;;;;23.95;11.27;;;10.30;64.20;;;;;;5013654;28;20120;-70
2022/03/21 10:00:18;;;;;;;26.77;12.02;;;10.40;63.80;;;;;;5009751;28;20038;-71
2022/03/21 10:02:43;;;;;;;29.48;12.27;;;10.70;66.20;;;;;;5009537;28;20068;-70
2022/03/21 10:05:46;;;;;;;25.15;12.65;;;11.00;67.20;;;;;;5010303;28;20046;-70
2022/03/21 10:08:28;;;;;;;25.95;11.73;;;11.10;65.00;;;;;;5008174;28;20052;-70
2022/03/21 10:11:02;;;;;;;28.60;11.93;;;11.20;66.30;;;;;;5009277;28;20388;-70
2022/03/21 10:13:30;;;;;;;30.08;12.48;;;11.30;65.60;;;;;;5010354;28;20083;-71
2022/03/21 10:16:12;;;;;;;28.52;13.20;;;11.40;64.80;;;;;;5009431;28;20060;-71
2022/03/21 10:18:54;;;;;;;28.17;12.38;;;11.50;65.20;;;;;;5010232;28;20037;-70
2022/03/21 10:21:24;;;;;;;27.98;13.70;;;11.50;63.60;;;;;;5010137;28;20052;-69
2022/03/21 10:24:08;;;;;;;27.90;13.10;;;11.40;63.70;;;;;;5007846;28;20025;-71
2022/03/21 10:26:42;;;;;;;26.73;12.52;;;11.40;63.10;;;;;;5008791;28;20034;-70
2022/03/21 10:29:10;;;;;;;28.80;12.63;;;11.80;62.10;;;;;;5007978;28;20040;-71
2022/03/21 10:31:48;;;;;;;26.02;13.00;;;11.70;59.80;;;;;;5009624;28;20491;-72
2022/03/21 10:34:20;;;;;;;28.20;13.02;;;11.90;60.70;;;;;;5009704;28;20114;-70
2022/03/21 10:37:07;;;;;;;28.25;12.90;;;12.10;59.40;;;;;;5008876;28;20062;-70
2022/03/21 10:39:36;;;;;;;25.40;12.25;;;12.40;63.40;;;;;;5008314;28;20076;-72
2022/03/21 10:42:05;;;;;;;25.77;12.68;;;12.80;63.80;;;;;;5020126;28;20112;-68
2022/03/21 10:44:33;;;;;;;24.63;11.90;;;13.00;59.50;;;;;;5018497;28;20029;-67
2022/03/21 10:47:03;;;;;;;29.05;13.02;;;13.10;57.50;;;;;;5014052;28;20030;-67
2022/03/21 10:49:34;;;;;;;23.25;12.18;;;13.20;57.70;;;;;;5009732;28;20472;-67
2022/03/21 10:52:02;;;;;;;24.77;12.70;;;13.40;56.60;;;;;;4990016;28;20814;-69
2022/03/21 10:54:41;;;;;;;26.25;12.05;;;13.60;56.40;;;;;;5013135;28;20042;-67
2022/03/21 10:57:33;;;;;;;27.42;12.93;;;13.60;56.00;;;;;;5008407;28;20080;-69
2022/03/21 11:00:16;;;;;;;27.15;12.85;;;14.00;56.40;;;;;;5015286;28;20045;-67
2022/03/21 11:03:03;;;;;;;26.50;12.70;;;14.00;55.10;;;;;;5009323;28;20037;-67
2022/03/21 11:05:32;;;;;;;29.67;13.23;;;14.00;52.50;;;;;;4998942;28;20846;-68
2022/03/21 11:07:58;;;;;;;28.52;13.18;;;13.70;54.90;;;;;;5010213;28;20608;-68
2022/03/21 11:10:26;;;;;;;25.48;12.38;;;13.90;56.20;;;;;;5029053;28;20108;-68
2022/03/21 11:12:54;;;;;;;29.48;12.13;;;14.00;54.00;;;;;;5022628;28;20522;-68
2022/03/21 11:15:20;;;;;;;23.35;12.15;;;13.80;52.20;;;;;;5009637;28;20034;-66
2022/03/21 11:17:46;;;;;;;22.70;11.65;;;13.40;52.90;;;;;;5010350;28;20384;-66
2022/03/21 11:20:13;;;;;;;27.33;12.98;;;13.50;54.80;;;;;;5010962;28;20038;-68
2022/03/21 11:22:40;;;;;;;25.58;12.82;;;13.60;51.20;;;;;;5009691;28;20554;-67
2022/03/21 11:25:12;;;;;;;23.58;12.45;;;13.60;52.00;;;;;;5008787;28;20041;-68
2022/03/21 11:27:50;;;;;;;26.58;12.77;;;13.80;50.60;;;;;;5015269;28;20095;-68
2022/03/21 11:30:49;;;;;;;25.67;12.35;;;14.20;51.40;;;;;;5009423;28;20112;-68
2022/03/21 11:33:52;;;;;;;25.23;12.52;;;14.30;49.40;;;;;;5009723;28;20030;-67
2022/03/21 11:36:18;;;;;;;24.88;12.57;;;14.50;49.10;;;;;;5008998;28;20030;-66
2022/03/21 11:38:46;;;;;;;27.75;13.10;;;14.60;48.00;;;;;;5018649;28;20060;-67
2022/03/21 11:41:23;;;;;;;26.27;12.98;;;14.30;47.50;;;;;;5008877;28;20123;-68
2022/03/21 11:44:04;;;;;;;25.42;12.63;;;14.50;47.50;;;;;;4999474;28;20029;-67
2022/03/21 11:46:34;;;;;;;22.63;12.30;;;14.80;47.10;;;;;;5015441;28;20455;-68
2022/03/21 11:49:02;;;;;;;27.38;12.20;;;14.90;47.30;;;;;;5007986;28;20112;-68
2022/03/21 11:51:36;;;;;;;22.83;12.13;;;15.20;47.30;;;;;;5009123;28;20112;-68
2022/03/21 11:54:06;;;;;;;21.75;10.93;;;15.40;45.50;;;;;;5007944;28;20083;-69
2022/03/21 11:56:40;;;;;;;25.10;11.70;;;15.30;45.00;;;;;;5023289;28;20079;-67
2022/03/21 11:59:26;;;;;;;22.73;10.95;;;15.00;45.80;;;;;;5031757;28;20025;-68
2022/03/21 12:01:52;;;;;;;21.88;12.10;;;15.30;45.80;;;;;;5017583;28;20488;-68
2022/03/21 12:04:23;;;;;;;22.70;11.48;;;15.80;45.00;;;;;;5016743;28;20056;-68
2022/03/21 12:06:49;;;;;;;21.90;11.10;;;16.00;42.20;;;;;;5031012;28;20079;-66
2022/03/21 12:09:16;;;;;;;21.02;11.55;;;16.10;41.90;;;;;;5022097;28;20484;-68
2022/03/21 12:11:42;;;;;;;22.48;11.82;;;16.00;42.40;;;;;;5017442;28;20034;-69
2022/03/21 12:14:20;;;;;;;23.55;11.55;;;16.10;43.30;;;;;;5011478;28;20599;-69
2022/03/21 12:16:47;;;;;;;20.40;11.05;;;16.10;42.00;;;;;;5011836;28;20038;-69
2022/03/21 12:19:12;;;;;;;22.05;10.50;;;16.00;41.10;;;;;;5010708;28;20022;-68
2022/03/21 12:21:39;;;;;;;19.80;11.00;;;15.90;41.50;;;;;;5016098;28;20484;-69
2022/03/21 12:24:13;;;;;;;23.50;11.32;;;16.00;41.20;;;;;;5012112;28;20175;-67
2022/03/21 12:26:50;;;;;;;20.50;10.30;;;16.00;42.80;;;;;;5012955;28;20612;-67
2022/03/21 12:29:32;;;;;;;21.58;10.82;;;16.20;41.60;;;;;;5012650;28;20042;-69
2022/03/21 12:32:24;;;;;;;20.60;10.15;;;16.20;40.40;;;;;;4992346;28;20031;-69
2022/03/21 12:34:51;;;;;;;17.70;10.10;;;16.40;40.50;;;;;;5010899;28;20099;-66
2022/03/21 12:37:41;;;;;;;20.05;10.45;;;16.80;39.90;;;;;;5019530;28;20072;-68
2022/03/21 12:40:14;;;;;;;20.00;10.00;;;16.20;38.50;;;;;;5009861;28;20052;-67
2022/03/21 12:42:44;;;;;;;20.67;10.73;;;16.30;39.70;;;;;;5011447;28;20110;-69
2022/03/21 12:45:19;;;;;;;20.02;10.80;;;16.40;39.90;;;;;;5009829;28;20643;-66
2022/03/21 12:47:46;;;;;;;21.63;10.73;;;16.20;40.90;;;;;;5011342;28;20030;-69
2022/03/21 12:50:21;;;;;;;22.70;11.10;;;16.30;39.90;;;;;;5010823;28;20104;-69
2022/03/21 12:52:56;;;;;;;23.52;10.30;;;16.60;39.10;;;;;;5011684;28;20022;-67
2022/03/21 12:55:23;;;;;;;21.85;11.00;;;16.70;37.90;;;;;;5011029;28;20040;-69
2022/03/21 12:58:09;;;;;;;20.33;10.15;;;16.20;38.10;;;;;;5009990;28;20755;-67
2022/03/21 13:00:38;;;;;;;23.35;10.95;;;16.00;39.40;;;;;;5004794;28;20037;-67
2022/03/21 13:03:09;;;;;;;22.52;10.52;;;16.20;38.70;;;;;;5009031;28;20046;-69
2022/03/21 13:11:23;;;;;;;22.73;11.25;;;16.80;40.10;;;;;;5010177;28;20087;-69
2022/03/21 13:13:53;;;;;;;23.60;12.25;;;16.40;40.10;;;;;;5010756;28;20109;-67
2022/03/21 13:16:20;;;;;;;23.67;11.43;;;16.70;40.80;;;;;;5011143;28;20040;-70